createdAt,value
2023-04-09T00:00:43.267Z,97418.42
2023-04-09T00:11:06.890Z,97415.71
2023-04-09T00:21:10.327Z,97414.85
2023-04-09T00:31:45.788Z,97417.77
2023-04-09T00:41:49.185Z,97423.61
2023-04-09T00:51:53.424Z,97420.47
2023-04-09T01:02:58.384Z,97425.22
2023-04-09T01:14:31.634Z,97417.88
2023-04-09T01:25:47.839Z,97423.08
2023-04-09T01:36:53.760Z,97423.15
2023-04-09T01:48:04.240Z,97424.14
2023-04-09T01:59:08.828Z,97421.94
2023-04-09T02:10:33.112Z,97424.15
2023-04-09T02:21:55.465Z,97430.74
2023-04-09T02:33:09.750Z,97425.67
2023-04-09T02:44:34.262Z,97417.86
2023-04-09T02:55:58.883Z,97415.88
2023-04-09T03:07:17.478Z,97416.95
2023-04-09T03:18:35.144Z,97419.96
2023-04-09T03:29:56.169Z,97417.27
2023-04-09T03:41:06.362Z,97416.36
2023-04-09T03:52:31.721Z,97423.64
2023-04-09T04:03:56.643Z,97435.27
2023-04-09T04:15:13.668Z,97440.40
2023-04-09T04:26:38.104Z,97443.27
2023-04-09T04:38:02.715Z,97447.96
2023-04-09T04:49:27.138Z,97450.45
2023-04-09T05:00:46.237Z,97454.94
2023-04-09T05:12:10.968Z,97457.70
2023-04-09T05:23:31.278Z,97457.91
2023-04-09T05:34:56.240Z,97470.19
2023-04-09T05:46:20.921Z,97481.41
2023-04-09T05:57:45.358Z,97484.59
2023-04-09T06:09:09.849Z,97489.66
2023-04-09T06:20:34.874Z,97492.63
2023-04-09T06:31:57.946Z,97498.92
2023-04-09T06:43:14.322Z,97497.83
2023-04-09T06:54:35.933Z,97502.21
2023-04-09T07:06:00.177Z,97504.61
2023-04-09T07:17:14.510Z,97514.16
2023-04-09T07:27:52.451Z,97519.73
2023-04-09T07:39:09.710Z,97523.93
2023-04-09T07:50:16.541Z,97528.19
2023-04-09T08:01:22.020Z,97521.30
2023-04-09T08:12:33.329Z,97523.61
2023-04-09T08:23:36.525Z,97514.23
2023-04-09T08:35:00.986Z,97513.52
2023-04-09T08:46:16.974Z,97507.66
2023-04-09T08:57:41.384Z,97508.33
2023-04-09T09:08:08.808Z,97508.56
2023-04-09T09:18:54.156Z,97506.85
2023-04-09T09:29:51.839Z,97507.09
2023-04-09T09:41:08.680Z,97508.24
2023-04-09T09:52:03.612Z,97505.26
2023-04-09T10:02:41.797Z,97502.63
2023-04-09T10:13:56.820Z,97504.98
2023-04-09T10:24:58.049Z,97501.13
2023-04-09T10:35:21.792Z,97499.56
2023-04-09T10:46:24.512Z,97494.96
2023-04-09T10:58:02.792Z,97492.85
2023-04-09T11:09:01.361Z,97486.09
2023-04-09T11:20:09.816Z,97487.09
2023-04-09T11:30:51.590Z,97486.58
2023-04-09T11:41:53.453Z,97481.85
2023-04-09T11:52:44.409Z,97483.33
2023-04-09T12:03:39.513Z,97495.41
2023-04-09T12:14:54.199Z,97497.69
2023-04-09T12:26:21.351Z,97496.90
2023-04-09T12:37:21.503Z,97489.32
2023-04-09T12:48:10.560Z,97487.25
2023-04-09T12:59:09.211Z,97485.23
2023-04-09T13:09:56.663Z,97486.59
2023-04-09T13:21:03.990Z,97484.30
2023-04-09T13:32:21.524Z,97487.71
2023-04-09T13:43:13.417Z,97486.45
2023-04-09T13:53:59.375Z,97484.50
2023-04-09T14:05:04.391Z,97475.94
2023-04-09T14:15:54.471Z,97471.39
2023-04-09T14:27:19.356Z,97463.23
2023-04-09T14:38:37.592Z,97459.15
2023-04-09T14:51:06.686Z,97454.82
2023-04-09T15:01:44.006Z,97451.27
2023-04-09T15:12:06.127Z,97443.80
2023-04-09T15:22:09.183Z,97442.03
2023-04-09T15:32:12.461Z,97437.41
2023-04-09T15:42:53.666Z,97439.74
2023-04-09T15:52:57.024Z,97442.59
2023-04-09T16:03:00.274Z,97442.55
2023-04-09T16:13:37.246Z,97441.43
2023-04-09T16:23:44.857Z,97444.67
2023-04-09T16:33:48.512Z,97442.10
2023-04-09T16:43:52.205Z,97446.48
2023-04-09T16:53:55.669Z,97453.45
2023-04-09T17:04:00.903Z,97463.81
2023-04-09T17:14:04.714Z,97476.02
2023-04-09T17:24:08.618Z,97479.80
2023-04-09T17:34:13.674Z,97487.42
2023-04-09T17:44:17.563Z,97501.97
2023-04-09T17:54:21.014Z,97516.81
2023-04-09T18:04:25.569Z,97522.33
2023-04-09T18:14:33.720Z,97536.23
2023-04-09T18:24:36.831Z,97544.98
2023-04-09T18:34:40.183Z,97555.60
2023-04-09T18:44:44.076Z,97562.86
2023-04-09T18:54:48.402Z,97578.42
2023-04-09T19:04:53.053Z,97584.66
2023-04-09T19:14:56.231Z,97588.77
2023-04-09T19:24:59.332Z,97593.15
2023-04-09T19:35:02.891Z,97593.23
2023-04-09T19:45:06.524Z,97596.37
2023-04-09T19:55:10.151Z,97587.83
2023-04-09T20:05:14.400Z,97589.80
2023-04-09T20:15:21.020Z,97592.69
2023-04-09T20:25:25.040Z,97593.30
2023-04-09T20:35:28.545Z,97592.59
2023-04-09T20:45:31.783Z,97589.50
2023-04-09T20:55:35.824Z,97587.00
2023-04-09T21:05:40.393Z,97584.23
2023-04-09T21:15:43.436Z,97587.33
2023-04-09T21:25:46.570Z,97593.19
2023-04-09T21:35:53.686Z,97596.65
2023-04-09T21:45:57.559Z,97599.38
2023-04-09T21:56:34.133Z,97604.59
2023-04-09T22:06:37.871Z,97606.23
2023-04-09T22:16:44.018Z,97610.45
2023-04-09T22:26:47.212Z,97612.90
2023-04-09T22:36:50.824Z,97611.12
2023-04-09T22:46:54.466Z,97613.20
2023-04-09T22:56:58.356Z,97614.71
2023-04-09T23:07:02.657Z,97612.91
2023-04-09T23:17:39.334Z,97610.63
2023-04-09T23:27:43.036Z,97615.83
2023-04-09T23:37:48.906Z,97613.48
2023-04-09T23:47:53.202Z,97607.54
2023-04-09T23:57:57.942Z,97604.83
